KSQLKMOD

Guest
Details From KSQL - San Carlos
To KMOD - Modesto City-Co-Harry Sham Field
Flight Number -
Tags generated
Created
Modified
Stats Distance 62 nm / 115 km
Max Altitude 1,400 ft / 427 m
Waypoints 3
Social Downloads 1
Likes 0
Share VATSIM

Download

Looking for another format? Having issues loading an existing format? Contact us
Advertisement - Login to hide

Notes

Basic altitude profile: - Ascent Rate: 2500ft/min - Ascent Speed: 250kts - Cruise Altitude: 35000ft - Cruise Speed: 420kts - Descent Rate: 1500ft/min - Descent Speed: 250kts

Route

KSQL SHELI KMOD

ID Type Via Altitude Latitude Longitude Leg Dist Tot Dist Heading (true) Name
O KSQL APT - 0 ft / 0 m 37.51173˚ -122.24939˚ - 0 nm - San Carlos
SHELI FIX - 1,400 ft / 427 m 37.61217˚ -121.09264˚ 55 nm 55 nm 83° / 84° -
O KMOD APT - 0 ft / 0 m 37.62605˚ -120.95540˚ 6 nm 61 nm 83° / 83° Modesto City-Co-Harry Sham Field

Altitude Profile

Advertisement - Login to hide

KSQL

Details ICAO KSQL (SQL)
Name San Carlos
Region United States
Timezone America/Los_Angeles (UTC-8.0)
Stats Elevation 5 ft / 2 m (AMSL)
Location 37.511735° -122.249386°
Runways 1
Magnetic Variation 13.422° E

METAR

KSQL 121955Z 00000KT 10SM FEW200 16/05 A3028

Decode

TAF

Not found

Departure Runways

ID Width Length Bearing (true) Bearing (mag) Surface Threshold Offset Overrun Length
12 75 ft / 23 m 2,619 ft / 798 m 138.39° 124.97° Asphalt 0 ft / 0 m 299 ft / 91 m
30 75 ft / 23 m 2,619 ft / 798 m 318.40° 304.98° Asphalt 0 ft / 0 m 135 ft / 41 m

KMOD

Details ICAO KMOD (MOD)
Name Modesto City-Co-Harry Sham Field
Region United States
Timezone America/Los_Angeles (UTC-8.0)
Stats Elevation 97 ft / 30 m (AMSL)
Location 37.626045° -120.955405°
Runways 2
Magnetic Variation 13.235° E

METAR

KMOD 121953Z 00000KT 5SM HZ CLR 13/06 A3030 RMK AO2 SLP260 T01330056

Decode

TAF

Not found

Destination Runways

ID Width Length Bearing (true) Bearing (mag) Surface Threshold Offset Overrun Length
10L 151 ft / 46 m 5,899 ft / 1,798 m 124.23° 110.99° Asphalt 0 ft / 0 m 200 ft / 61 m
10R 98 ft / 30 m 3,462 ft / 1,055 m 124.20° 110.96° Asphalt 0 ft / 0 m 531 ft / 162 m
28L 98 ft / 30 m 3,462 ft / 1,055 m 304.20° 290.96° Asphalt 0 ft / 0 m 0 ft / 0 m
28R 151 ft / 46 m 5,899 ft / 1,798 m 304.24° 291.00° Asphalt 0 ft / 0 m 98 ft / 30 m

Approach Navaids

Runway Type Ident Frequency Range Bearing (true) Bearing (mag) Slope Elevation
28R Localiser IMOD 111.90 MHz 18 nm / 33 km 304.22° 290.98° - 95 ft / 29 m (AMSL)
28R Glidescope IMOD 111.90 MHz 10 nm / 19 km 304.23° 291.00° 3.00° 82 ft / 25 m (AMSL)